createdAt,value
2023-02-19T00:03:13.928Z,6.05
2023-02-19T00:08:19.134Z,6.93
2023-02-19T00:13:25.039Z,6.30
2023-02-19T00:18:28.511Z,5.80
2023-02-19T00:23:33.723Z,6.72
2023-02-19T00:28:40.421Z,6.43
2023-02-19T00:33:44.207Z,6.32
2023-02-19T00:38:49.409Z,6.38
2023-02-19T00:43:53.666Z,7.70
2023-02-19T00:48:58.380Z,7.15
2023-02-19T00:54:03.288Z,6.72
2023-02-19T00:59:10.020Z,6.32
2023-02-19T01:04:14.073Z,6.20
2023-02-19T01:09:19.000Z,9.23
2023-02-19T01:14:22.864Z,6.78
2023-02-19T01:19:27.704Z,9.77
2023-02-19T01:24:32.848Z,8.40
2023-02-19T01:29:38.103Z,7.20
2023-02-19T01:34:42.755Z,6.60
2023-02-19T01:39:51.378Z,11.60
2023-02-19T01:45:20.410Z,9.87
2023-02-19T01:50:24.635Z,10.75
2023-02-19T01:55:29.528Z,12.65
2023-02-19T02:00:34.413Z,13.80
2023-02-19T02:05:45.814Z,12.48
2023-02-19T02:10:53.870Z,13.95
2023-02-19T02:16:04.963Z,12.13
2023-02-19T02:21:32.607Z,11.88
2023-02-19T02:26:46.037Z,12.00
2023-02-19T02:31:52.635Z,12.20
2023-02-19T02:36:56.606Z,13.18
2023-02-19T02:42:18.759Z,14.38
2023-02-19T02:47:44.963Z,11.75
2023-02-19T02:53:07.908Z,15.43
2023-02-19T02:58:11.837Z,19.83
2023-02-19T03:03:17.856Z,17.88
2023-02-19T03:08:26.562Z,20.65
2023-02-19T03:13:51.742Z,16.38
2023-02-19T03:19:15.034Z,16.80
2023-02-19T03:24:36.727Z,21.35
2023-02-19T03:29:41.058Z,17.67
2023-02-19T03:34:48.929Z,25.88
2023-02-19T03:39:54.216Z,23.20
2023-02-19T03:45:16.210Z,19.58
2023-02-19T03:50:23.212Z,20.92
2023-02-19T03:55:29.694Z,19.98
2023-02-19T04:00:35.411Z,18.90
2023-02-19T04:05:43.584Z,25.67
2023-02-19T04:10:47.590Z,22.17
2023-02-19T04:15:52.701Z,21.38
2023-02-19T04:20:57.663Z,14.68
2023-02-19T04:26:01.554Z,15.55
2023-02-19T04:31:05.332Z,22.42
2023-02-19T04:36:12.094Z,20.88
2023-02-19T04:41:15.931Z,13.60
2023-02-19T04:46:20.069Z,14.20
2023-02-19T04:51:26.100Z,12.13
2023-02-19T04:56:29.720Z,14.43
2023-02-19T05:01:33.308Z,11.45
2023-02-19T05:06:38.535Z,9.65
2023-02-19T05:11:42.123Z,10.15
2023-02-19T05:16:48.232Z,11.25
2023-02-19T05:21:53.059Z,7.85
2023-02-19T05:26:57.168Z,6.70
2023-02-19T05:32:01.628Z,5.70
2023-02-19T05:37:07.113Z,4.20
2023-02-19T05:42:10.698Z,3.90
2023-02-19T05:47:14.139Z,5.05
2023-02-19T05:52:21.239Z,4.43
2023-02-19T05:57:25.831Z,7.43
2023-02-19T06:02:29.590Z,6.65
2023-02-19T06:07:35.196Z,8.57
2023-02-19T06:12:38.984Z,5.93
2023-02-19T06:17:43.244Z,4.10
2023-02-19T06:22:49.345Z,7.35
2023-02-19T06:27:52.767Z,4.50
2023-02-19T06:32:56.155Z,5.65
2023-02-19T06:38:03.593Z,3.03
2023-02-19T06:43:07.039Z,3.78
2023-02-19T06:48:11.087Z,8.05
2023-02-19T06:53:16.000Z,5.10
2023-02-19T06:58:19.318Z,7.07
2023-02-19T07:03:23.157Z,6.60
2023-02-19T07:08:29.762Z,5.93
2023-02-19T07:13:33.324Z,7.05
2023-02-19T07:18:36.548Z,7.57
2023-02-19T07:23:41.938Z,5.15
2023-02-19T07:28:45.661Z,5.75
2023-02-19T07:33:49.740Z,8.18
2023-02-19T07:38:59.254Z,4.45
2023-02-19T07:49:07.880Z,3.63
2023-02-19T07:54:12.697Z,5.90
2023-02-19T07:59:19.672Z,9.18
2023-02-19T08:04:23.399Z,7.55
2023-02-19T08:09:29.620Z,8.82
2023-02-19T08:14:33.312Z,14.32
2023-02-19T08:19:36.725Z,6.82
2023-02-19T08:24:42.999Z,6.35
2023-02-19T08:29:46.332Z,4.28
2023-02-19T08:34:49.341Z,11.43
2023-02-19T08:39:54.792Z,9.43
2023-02-19T08:44:58.863Z,7.75
2023-02-19T08:50:02.348Z,9.43
2023-02-19T08:55:08.568Z,10.35
2023-02-19T09:00:13.450Z,6.25
2023-02-19T09:05:16.844Z,6.22
2023-02-19T09:10:21.825Z,7.07
2023-02-19T09:15:25.224Z,9.18
2023-02-19T09:20:29.433Z,8.85
2023-02-19T09:25:34.143Z,7.88
2023-02-19T09:30:37.557Z,6.05
2023-02-19T09:35:41.045Z,8.88
2023-02-19T09:40:46.941Z,5.63
2023-02-19T09:45:59.912Z,8.93
2023-02-19T09:51:03.249Z,7.32
2023-02-19T09:56:09.494Z,11.15
2023-02-19T10:01:13.242Z,3.05
2023-02-19T10:06:20.625Z,10.52
2023-02-19T10:11:26.012Z,8.15
2023-02-19T10:16:29.454Z,8.73
2023-02-19T10:21:32.844Z,6.15
2023-02-19T10:26:37.551Z,4.82
2023-02-19T10:31:40.792Z,7.75
2023-02-19T10:36:45.267Z,13.57
2023-02-19T10:41:54.965Z,7.57
2023-02-19T10:46:59.924Z,12.52
2023-02-19T10:52:17.497Z,10.32
2023-02-19T10:57:33.447Z,8.63
2023-02-19T11:02:36.768Z,8.07
2023-02-19T11:07:44.200Z,9.77
2023-02-19T11:12:52.330Z,9.57
2023-02-19T11:18:00.539Z,8.23
2023-02-19T11:23:08.134Z,1.85
2023-02-19T11:28:30.201Z,4.25
2023-02-19T11:33:34.160Z,8.75
2023-02-19T11:38:37.583Z,4.85
2023-02-19T11:43:56.588Z,9.30
2023-02-19T11:49:06.837Z,4.30
2023-02-19T11:54:21.071Z,6.10
2023-02-19T11:59:29.300Z,5.80
2023-02-19T12:05:02.168Z,6.00
2023-02-19T12:10:09.968Z,8.50
2023-02-19T12:15:43.589Z,7.05
2023-02-19T12:20:51.497Z,6.45
2023-02-19T12:25:58.524Z,3.75
2023-02-19T12:31:26.238Z,16.52
2023-02-19T12:36:33.068Z,7.47
2023-02-19T12:41:43.154Z,11.52
2023-02-19T12:46:49.130Z,12.77
2023-02-19T12:51:55.352Z,3.83
2023-02-19T12:57:02.008Z,6.00
2023-02-19T13:02:14.963Z,7.35
2023-02-19T13:07:20.166Z,6.13
2023-02-19T13:12:25.770Z,9.68
2023-02-19T13:17:33.344Z,7.30
2023-02-19T13:22:56.530Z,8.02
2023-02-19T13:28:13.419Z,4.80
2023-02-19T13:33:25.060Z,8.20
2023-02-19T13:38:29.281Z,11.15
2023-02-19T13:43:35.774Z,7.03
2023-02-19T13:48:47.703Z,9.05
2023-02-19T13:53:59.644Z,4.15
2023-02-19T13:59:27.354Z,8.00
2023-02-19T14:04:51.913Z,5.20
2023-02-19T14:10:00.906Z,8.55
2023-02-19T14:15:44.414Z,4.57
2023-02-19T14:20:52.317Z,8.38
2023-02-19T14:25:58.618Z,4.97
2023-02-19T14:31:05.177Z,6.75
2023-02-19T14:36:15.729Z,5.28
2023-02-19T14:41:18.837Z,6.68
2023-02-19T14:46:26.269Z,5.10
2023-02-19T14:51:35.506Z,4.53
2023-02-19T14:56:38.903Z,4.63
2023-02-19T15:01:42.314Z,4.72
2023-02-19T15:06:46.899Z,6.28
2023-02-19T15:11:50.940Z,5.18
2023-02-19T15:16:59.711Z,4.32
2023-02-19T15:22:04.557Z,5.60
2023-02-19T15:27:07.937Z,4.53
2023-02-19T15:32:23.433Z,4.10
2023-02-19T15:37:29.077Z,8.05
2023-02-19T15:42:34.278Z,3.38
2023-02-19T15:47:39.557Z,3.28
2023-02-19T15:52:47.147Z,7.38
2023-02-19T15:57:55.647Z,4.53
2023-02-19T16:08:09.980Z,4.45
2023-02-19T16:18:16.675Z,5.30
2023-02-19T16:23:24.756Z,6.43
2023-02-19T16:28:30.188Z,4.97
2023-02-19T16:33:36.609Z,7.35
2023-02-19T16:38:41.587Z,8.05
2023-02-19T16:43:44.783Z,10.95
2023-02-19T16:48:48.177Z,8.73
2023-02-19T16:53:52.991Z,4.70
2023-02-19T16:58:56.367Z,6.30
2023-02-19T17:04:01.011Z,6.82
2023-02-19T17:09:06.570Z,6.25
2023-02-19T17:14:10.249Z,5.10
2023-02-19T17:19:14.261Z,5.63
2023-02-19T17:24:19.126Z,9.48
2023-02-19T17:29:23.218Z,4.95
2023-02-19T17:34:26.714Z,13.82
2023-02-19T17:39:32.258Z,8.25
2023-02-19T17:44:36.533Z,6.38
2023-02-19T17:49:39.911Z,4.82
2023-02-19T17:54:45.380Z,6.75
2023-02-19T17:59:49.121Z,7.68
2023-02-19T18:04:52.936Z,5.30
2023-02-19T18:09:58.393Z,8.13
2023-02-19T18:15:02.045Z,7.10
2023-02-19T18:20:08.414Z,5.68
2023-02-19T18:25:24.420Z,5.85
2023-02-19T18:30:28.655Z,7.35
2023-02-19T18:35:34.639Z,5.55
2023-02-19T18:40:40.236Z,6.18
2023-02-19T18:45:47.551Z,4.57
2023-02-19T18:50:51.316Z,4.65
2023-02-19T18:55:56.991Z,6.07
2023-02-19T19:01:11.799Z,9.75
2023-02-19T19:06:42.077Z,6.60
2023-02-19T19:11:47.172Z,8.48
2023-02-19T19:16:50.777Z,7.50
2023-02-19T19:21:54.607Z,9.57
2023-02-19T19:27:00.187Z,12.02
2023-02-19T19:32:08.387Z,10.05
2023-02-19T19:37:12.490Z,6.97
2023-02-19T19:42:17.452Z,9.63
2023-02-19T19:47:20.935Z,7.85
2023-02-19T19:52:24.794Z,5.38
2023-02-19T19:57:30.162Z,8.63
2023-02-19T20:02:33.869Z,10.63
2023-02-19T20:07:37.742Z,12.48
2023-02-19T20:12:50.935Z,6.05
2023-02-19T20:17:54.936Z,6.68
2023-02-19T20:22:58.317Z,6.57
2023-02-19T20:28:03.818Z,7.18
2023-02-19T20:33:08.114Z,8.05
2023-02-19T20:38:15.426Z,5.10
2023-02-19T20:43:20.372Z,6.90
2023-02-19T20:48:23.703Z,7.47
2023-02-19T20:53:28.385Z,8.40
2023-02-19T20:58:33.663Z,6.22
2023-02-19T21:03:36.798Z,7.47
2023-02-19T21:08:41.983Z,7.22
2023-02-19T21:13:46.944Z,6.72
2023-02-19T21:18:51.406Z,7.63
2023-02-19T21:23:55.024Z,5.47
2023-02-19T21:29:10.038Z,9.43
2023-02-19T21:34:23.590Z,7.05
2023-02-19T21:39:27.715Z,6.03
2023-02-19T21:44:33.117Z,7.85
2023-02-19T21:49:36.951Z,14.68
2023-02-19T21:54:41.862Z,7.18
2023-02-19T21:59:47.021Z,4.50
2023-02-19T22:04:54.698Z,5.70
2023-02-19T22:10:01.069Z,7.50
2023-02-19T22:15:06.841Z,9.48
2023-02-19T22:20:10.542Z,8.63
2023-02-19T22:25:14.482Z,9.25
2023-02-19T22:30:19.875Z,8.45
2023-02-19T22:35:24.032Z,9.68
2023-02-19T22:40:27.478Z,8.50
2023-02-19T22:45:32.730Z,13.30
2023-02-19T22:50:36.421Z,9.65
2023-02-19T22:55:40.098Z,8.20
2023-02-19T23:00:45.114Z,11.02
2023-02-19T23:05:48.786Z,8.38
2023-02-19T23:10:52.128Z,7.63
2023-02-19T23:15:57.266Z,8.32
2023-02-19T23:21:00.922Z,7.40
2023-02-19T23:26:04.856Z,8.60
2023-02-19T23:31:12.016Z,7.43
2023-02-19T23:36:19.094Z,9.75
2023-02-19T23:41:24.790Z,7.25
2023-02-19T23:46:30.376Z,8.90
2023-02-19T23:51:34.060Z,12.07
2023-02-19T23:56:38.099Z,11.02
